sensor_id;sensor_type;location;lat;lon;timestamp;temperature;humidity
2653;DHT22;1336;48.692;9.144;2022-12-18T06:00:19;-5.80;97.20
2653;DHT22;1336;48.692;9.144;2022-12-18T06:01:12;-5.80;97.20
2653;DHT22;1336;48.692;9.144;2022-12-18T06:02:03;-5.80;97.20
2653;DHT22;1336;48.692;9.144;2022-12-18T06:02:55;-5.80;97.20
2653;DHT22;1336;48.692;9.144;2022-12-18T06:03:46;-5.80;97.20
2653;DHT22;1336;48.692;9.144;2022-12-18T06:04:37;-5.80;97.20
2653;DHT22;1336;48.692;9.144;2022-12-18T06:05:28;-5.80;97.20
2653;DHT22;1336;48.692;9.144;2022-12-18T06:06:22;-5.80;97.20
2653;DHT22;1336;48.692;9.144;2022-12-18T06:07:13;-5.90;97.20
2653;DHT22;1336;48.692;9.144;2022-12-18T06:08:05;-5.90;97.20
2653;DHT22;1336;48.692;9.144;2022-12-18T06:08:56;-5.90;97.20
2653;DHT22;1336;48.692;9.144;2022-12-18T06:09:48;-5.90;97.20
2653;DHT22;1336;48.692;9.144;2022-12-18T06:10:39;-5.90;97.20
2653;DHT22;1336;48.692;9.144;2022-12-18T06:11:31;-5.90;97.20
2653;DHT22;1336;48.692;9.144;2022-12-18T06:12:22;-5.90;97.20
2653;DHT22;1336;48.692;9.144;2022-12-18T06:13:13;-5.90;97.20
2653;DHT22;1336;48.692;9.144;2022-12-18T06:14:05;-5.90;97.20
2653;DHT22;1336;48.692;9.144;2022-12-18T06:14:57;-6.00;97.20
2653;DHT22;1336;48.692;9.144;2022-12-18T06:15:49;-6.00;97.20
2653;DHT22;1336;48.692;9.144;2022-12-18T06:16:41;-6.00;97.20
2653;DHT22;1336;48.692;9.144;2022-12-18T06:17:32;-6.00;97.20
2653;DHT22;1336;48.692;9.144;2022-12-18T06:18:24;-6.00;97.20
2653;DHT22;1336;48.692;9.144;2022-12-18T06:19:16;-6.00;97.20
2653;DHT22;1336;48.692;9.144;2022-12-18T06:20:08;-6.00;97.20
2653;DHT22;1336;48.692;9.144;2022-12-18T06:21:00;-6.00;97.20
2653;DHT22;1336;48.692;9.144;2022-12-18T06:21:52;-6.00;97.20
2653;DHT22;1336;48.692;9.144;2022-12-18T06:22:43;-6.10;97.20
2653;DHT22;1336;48.692;9.144;2022-12-18T06:23:35;-6.10;97.20
2653;DHT22;1336;48.692;9.144;2022-12-18T06:24:26;-6.00;97.20
2653;DHT22;1336;48.692;9.144;2022-12-18T06:25:18;-6.10;97.20
2653;DHT22;1336;48.692;9.144;2022-12-18T06:26:11;-6.10;97.20
2653;DHT22;1336;48.692;9.144;2022-12-18T06:27:03;-6.00;97.20
2653;DHT22;1336;48.692;9.144;2022-12-18T06:27:53;-6.00;97.20
2653;DHT22;1336;48.692;9.144;2022-12-18T06:28:45;-6.00;97.20
2653;DHT22;1336;48.692;9.144;2022-12-18T06:29:36;-6.00;97.20
2653;DHT22;1336;48.692;9.144;2022-12-18T06:30:28;-6.00;97.20
2653;DHT22;1336;48.692;9.144;2022-12-18T06:31:20;-6.00;97.20
2653;DHT22;1336;48.692;9.144;2022-12-18T06:32:11;-6.00;97.20
2653;DHT22;1336;48.692;9.144;2022-12-18T06:33:02;-6.00;97.20
2653;DHT22;1336;48.692;9.144;2022-12-18T06:33:54;-6.00;97.20
2653;DHT22;1336;48.692;9.144;2022-12-18T06:34:44;-6.00;97.20
2653;DHT22;1336;48.692;9.144;2022-12-18T06:35:36;-6.10;97.20
2653;DHT22;1336;48.692;9.144;2022-12-18T06:36:30;-6.10;97.20
2653;DHT22;1336;48.692;9.144;2022-12-18T06:37:22;-6.10;97.20
2653;DHT22;1336;48.692;9.144;2022-12-18T06:38:15;-6.10;97.20
2653;DHT22;1336;48.692;9.144;2022-12-18T06:39:07;-6.20;97.20
2653;DHT22;1336;48.692;9.144;2022-12-18T06:39:57;-6.10;97.20
2653;DHT22;1336;48.692;9.144;2022-12-18T06:40:49;-6.10;97.20
2653;DHT22;1336;48.692;9.144;2022-12-18T06:41:40;-6.10;97.20
2653;DHT22;1336;48.692;9.144;2022-12-18T06:42:32;-6.10;97.20
2653;DHT22;1336;48.692;9.144;2022-12-18T06:43:22;-6.20;97.20
2653;DHT22;1336;48.692;9.144;2022-12-18T06:44:14;-6.20;97.20
2653;DHT22;1336;48.692;9.144;2022-12-18T06:45:06;-6.20;97.20
2653;DHT22;1336;48.692;9.144;2022-12-18T06:45:59;-6.20;97.20
2653;DHT22;1336;48.692;9.144;2022-12-18T06:46:51;-6.30;97.20
2653;DHT22;1336;48.692;9.144;2022-12-18T06:47:42;-6.30;97.20
2653;DHT22;1336;48.692;9.144;2022-12-18T06:48:33;-6.30;97.20
2653;DHT22;1336;48.692;9.144;2022-12-18T06:49:25;-6.30;97.20
2653;DHT22;1336;48.692;9.144;2022-12-18T06:50:16;-6.30;97.20
2653;DHT22;1336;48.692;9.144;2022-12-18T06:51:08;-6.30;97.20
2653;DHT22;1336;48.692;9.144;2022-12-18T06:51:58;-6.30;97.20
2653;DHT22;1336;48.692;9.144;2022-12-18T06:52:50;-6.40;97.20
2653;DHT22;1336;48.692;9.144;2022-12-18T06:53:41;-6.30;97.20
2653;DHT22;1336;48.692;9.144;2022-12-18T06:54:32;-6.30;97.20
2653;DHT22;1336;48.692;9.144;2022-12-18T06:55:23;-6.40;97.20
2653;DHT22;1336;48.692;9.144;2022-12-18T06:56:15;-6.40;97.20
2653;DHT22;1336;48.692;9.144;2022-12-18T06:57:06;-6.40;97.20
2653;DHT22;1336;48.692;9.144;2022-12-18T06:57:57;-6.40;97.20
2653;DHT22;1336;48.692;9.144;2022-12-18T06:58:48;-6.40;97.20
2653;DHT22;1336;48.692;9.144;2022-12-18T06:59:40;-6.40;97.20
2653;DHT22;1336;48.692;9.144;2022-12-18T07:00:30;-6.40;97.20
2653;DHT22;1336;48.692;9.144;2022-12-18T07:01:22;-6.50;97.20
2653;DHT22;1336;48.692;9.144;2022-12-18T07:02:14;-6.50;97.20
2653;DHT22;1336;48.692;9.144;2022-12-18T07:03:06;-6.50;97.20
2653;DHT22;1336;48.692;9.144;2022-12-18T07:03:57;-6.50;97.20
2653;DHT22;1336;48.692;9.144;2022-12-18T07:04:49;-6.60;97.20
2653;DHT22;1336;48.692;9.144;2022-12-18T07:05:40;-6.60;97.20
2653;DHT22;1336;48.692;9.144;2022-12-18T07:06:32;-6.60;97.20
2653;DHT22;1336;48.692;9.144;2022-12-18T07:07:22;-6.60;97.20
2653;DHT22;1336;48.692;9.144;2022-12-18T07:08:14;-6.50;97.20
2653;DHT22;1336;48.692;9.144;2022-12-18T07:09:05;-6.60;97.20
2653;DHT22;1336;48.692;9.144;2022-12-18T07:09:56;-6.50;97.20
2653;DHT22;1336;48.692;9.144;2022-12-18T07:10:47;-6.50;97.20
2653;DHT22;1336;48.692;9.144;2022-12-18T07:11:39;-6.60;97.20
2653;DHT22;1336;48.692;9.144;2022-12-18T07:12:30;-6.60;97.20
2653;DHT22;1336;48.692;9.144;2022-12-18T07:13:22;-6.60;97.20
2653;DHT22;1336;48.692;9.144;2022-12-18T07:14:13;-6.60;97.20
2653;DHT22;1336;48.692;9.144;2022-12-18T07:15:05;-6.60;97.20
2653;DHT22;1336;48.692;9.144;2022-12-18T07:16:04;-6.60;97.20
2653;DHT22;1336;48.692;9.144;2022-12-18T07:16:55;-6.60;97.20
2653;DHT22;1336;48.692;9.144;2022-12-18T07:17:47;-6.60;97.20
2653;DHT22;1336;48.692;9.144;2022-12-18T07:18:39;-6.60;97.20
2653;DHT22;1336;48.692;9.144;2022-12-18T07:19:30;-6.60;97.20
2653;DHT22;1336;48.692;9.144;2022-12-18T07:20:21;-6.50;97.20
2653;DHT22;1336;48.692;9.144;2022-12-18T07:21:16;-6.60;97.20
2653;DHT22;1336;48.692;9.144;2022-12-18T07:22:08;-6.50;97.20
2653;DHT22;1336;48.692;9.144;2022-12-18T07:22:58;-6.50;97.20
2653;DHT22;1336;48.692;9.144;2022-12-18T07:23:50;-6.50;97.20
2653;DHT22;1336;48.692;9.144;2022-12-18T07:24:41;-6.50;97.20
2653;DHT22;1336;48.692;9.144;2022-12-18T07:25:34;-6.40;97.20
2653;DHT22;1336;48.692;9.144;2022-12-18T07:26:25;-6.40;97.20
2653;DHT22;1336;48.692;9.144;2022-12-18T07:27:16;-6.30;97.20
2653;DHT22;1336;48.692;9.144;2022-12-18T07:28:07;-6.30;97.20
2653;DHT22;1336;48.692;9.144;2022-12-18T07:28:59;-6.30;97.20
2653;DHT22;1336;48.692;9.144;2022-12-18T07:29:49;-6.30;97.20
2653;DHT22;1336;48.692;9.144;2022-12-18T07:30:41;-6.20;97.20
2653;DHT22;1336;48.692;9.144;2022-12-18T07:31:32;-6.20;97.20
2653;DHT22;1336;48.692;9.144;2022-12-18T07:32:24;-6.20;97.20
2653;DHT22;1336;48.692;9.144;2022-12-18T07:33:16;-6.10;97.20
2653;DHT22;1336;48.692;9.144;2022-12-18T07:34:10;-6.10;97.20
2653;DHT22;1336;48.692;9.144;2022-12-18T07:35:00;-6.00;97.20
2653;DHT22;1336;48.692;9.144;2022-12-18T07:35:52;-6.00;97.20
2653;DHT22;1336;48.692;9.144;2022-12-18T07:36:43;-5.90;97.20
2653;DHT22;1336;48.692;9.144;2022-12-18T07:37:35;-5.90;97.20
2653;DHT22;1336;48.692;9.144;2022-12-18T07:38:25;-5.90;97.20
2653;DHT22;1336;48.692;9.144;2022-12-18T07:39:17;-5.90;97.20
2653;DHT22;1336;48.692;9.144;2022-12-18T07:40:09;-5.90;97.20
2653;DHT22;1336;48.692;9.144;2022-12-18T07:41:01;-5.80;97.20
2653;DHT22;1336;48.692;9.144;2022-12-18T07:41:53;-5.80;97.20
2653;DHT22;1336;48.692;9.144;2022-12-18T07:42:58;-5.80;97.20
2653;DHT22;1336;48.692;9.144;2022-12-18T07:43:50;-5.70;97.20
2653;DHT22;1336;48.692;9.144;2022-12-18T07:44:41;-5.70;97.20
2653;DHT22;1336;48.692;9.144;2022-12-18T07:45:32;-5.70;97.20
2653;DHT22;1336;48.692;9.144;2022-12-18T07:46:23;-5.60;97.20
2653;DHT22;1336;48.692;9.144;2022-12-18T07:47:15;-5.60;97.20
2653;DHT22;1336;48.692;9.144;2022-12-18T07:48:06;-5.50;97.20
2653;DHT22;1336;48.692;9.144;2022-12-18T07:48:59;-5.50;97.20
2653;DHT22;1336;48.692;9.144;2022-12-18T07:49:49;-5.40;97.20
2653;DHT22;1336;48.692;9.144;2022-12-18T07:50:41;-5.40;97.20
2653;DHT22;1336;48.692;9.144;2022-12-18T07:51:32;-5.30;97.20
2653;DHT22;1336;48.692;9.144;2022-12-18T07:52:23;-5.30;97.20
2653;DHT22;1336;48.692;9.144;2022-12-18T07:53:14;-5.30;97.20
2653;DHT22;1336;48.692;9.144;2022-12-18T07:54:06;-5.20;97.20
2653;DHT22;1336;48.692;9.144;2022-12-18T07:54:57;-5.20;97.20
2653;DHT22;1336;48.692;9.144;2022-12-18T07:55:49;-5.10;97.20
2653;DHT22;1336;48.692;9.144;2022-12-18T07:56:39;-5.10;97.20
2653;DHT22;1336;48.692;9.144;2022-12-18T07:57:31;-5.10;97.20
2653;DHT22;1336;48.692;9.144;2022-12-18T07:58:22;-5.00;97.20
2653;DHT22;1336;48.692;9.144;2022-12-18T07:59:13;-5.00;97.20
2653;DHT22;1336;48.692;9.144;2022-12-18T08:00:06;-4.90;97.20
2653;DHT22;1336;48.692;9.144;2022-12-18T08:01:03;-4.90;97.20
2653;DHT22;1336;48.692;9.144;2022-12-18T08:01:55;-4.80;97.20
2653;DHT22;1336;48.692;9.144;2022-12-18T08:02:46;-4.80;97.20
2653;DHT22;1336;48.692;9.144;2022-12-18T08:03:39;-4.80;97.20
2653;DHT22;1336;48.692;9.144;2022-12-18T08:04:31;-4.70;97.20
2653;DHT22;1336;48.692;9.144;2022-12-18T08:05:23;-4.70;97.20
2653;DHT22;1336;48.692;9.144;2022-12-18T08:06:14;-4.60;97.20
2653;DHT22;1336;48.692;9.144;2022-12-18T08:07:05;-4.60;97.20
2653;DHT22;1336;48.692;9.144;2022-12-18T08:07:58;-4.60;97.20
2653;DHT22;1336;48.692;9.144;2022-12-18T08:08:51;-4.50;97.20
2653;DHT22;1336;48.692;9.144;2022-12-18T08:09:41;-4.50;97.20
2653;DHT22;1336;48.692;9.144;2022-12-18T08:10:33;-4.40;97.20
2653;DHT22;1336;48.692;9.144;2022-12-18T08:11:27;-4.40;97.20
2653;DHT22;1336;48.692;9.144;2022-12-18T08:12:19;-4.30;97.20
2653;DHT22;1336;48.692;9.144;2022-12-18T08:13:10;-4.30;97.20
2653;DHT22;1336;48.692;9.144;2022-12-18T08:14:02;-4.20;97.20
2653;DHT22;1336;48.692;9.144;2022-12-18T08:14:53;-4.20;97.20
2653;DHT22;1336;48.692;9.144;2022-12-18T08:15:45;-4.10;97.20
2653;DHT22;1336;48.692;9.144;2022-12-18T08:16:35;-4.10;97.20
2653;DHT22;1336;48.692;9.144;2022-12-18T08:17:27;-4.00;97.20
2653;DHT22;1336;48.692;9.144;2022-12-18T08:18:18;-3.90;97.20
2653;DHT22;1336;48.692;9.144;2022-12-18T08:19:09;-3.90;97.20
2653;DHT22;1336;48.692;9.144;2022-12-18T08:20:02;-3.80;97.20
2653;DHT22;1336;48.692;9.144;2022-12-18T08:20:54;-3.80;97.20
2653;DHT22;1336;48.692;9.144;2022-12-18T08:21:45;-3.60;97.20
2653;DHT22;1336;48.692;9.144;2022-12-18T08:22:36;-3.60;97.20
2653;DHT22;1336;48.692;9.144;2022-12-18T08:23:27;-3.50;97.20
2653;DHT22;1336;48.692;9.144;2022-12-18T08:24:19;-3.40;97.20
2653;DHT22;1336;48.692;9.144;2022-12-18T08:25:10;-3.30;97.20
2653;DHT22;1336;48.692;9.144;2022-12-18T08:26:02;-3.20;97.20
2653;DHT22;1336;48.692;9.144;2022-12-18T08:26:52;-3.10;97.20
2653;DHT22;1336;48.692;9.144;2022-12-18T08:27:44;-3.00;97.20
2653;DHT22;1336;48.692;9.144;2022-12-18T08:28:35;-2.80;97.20
2653;DHT22;1336;48.692;9.144;2022-12-18T08:29:26;-2.60;97.20
2653;DHT22;1336;48.692;9.144;2022-12-18T08:30:17;-2.20;97.20
2653;DHT22;1336;48.692;9.144;2022-12-18T08:31:09;-1.60;97.20
2653;DHT22;1336;48.692;9.144;2022-12-18T08:32:00;-0.70;97.20
2653;DHT22;1336;48.692;9.144;2022-12-18T08:32:52;0.30;97.20
2653;DHT22;1336;48.692;9.144;2022-12-18T08:33:43;1.40;97.20
2653;DHT22;1336;48.692;9.144;2022-12-18T08:34:35;2.40;97.20
2653;DHT22;1336;48.692;9.144;2022-12-18T08:35:27;3.40;97.20
2653;DHT22;1336;48.692;9.144;2022-12-18T08:36:19;4.40;97.20
2653;DHT22;1336;48.692;9.144;2022-12-18T08:37:10;5.40;97.20
2653;DHT22;1336;48.692;9.144;2022-12-18T08:38:01;6.20;97.20
2653;DHT22;1336;48.692;9.144;2022-12-18T08:38:52;7.00;97.20
2653;DHT22;1336;48.692;9.144;2022-12-18T08:39:44;7.70;97.20
2653;DHT22;1336;48.692;9.144;2022-12-18T08:40:35;8.30;97.20
2653;DHT22;1336;48.692;9.144;2022-12-18T08:41:27;8.90;97.20
2653;DHT22;1336;48.692;9.144;2022-12-18T08:42:17;9.50;97.20
2653;DHT22;1336;48.692;9.144;2022-12-18T08:43:27;10.00;97.20
2653;DHT22;1336;48.692;9.144;2022-12-18T08:44:36;10.70;97.20
2653;DHT22;1336;48.692;9.144;2022-12-18T08:45:31;11.20;96.50
2653;DHT22;1336;48.692;9.144;2022-12-18T08:46:24;11.50;95.30
2653;DHT22;1336;48.692;9.144;2022-12-18T08:47:16;11.90;94.50
2653;DHT22;1336;48.692;9.144;2022-12-18T08:48:07;12.00;93.30
2653;DHT22;1336;48.692;9.144;2022-12-18T08:48:59;12.00;92.50
2653;DHT22;1336;48.692;9.144;2022-12-18T08:49:49;12.00;92.00
2653;DHT22;1336;48.692;9.144;2022-12-18T08:50:42;11.80;91.70
2653;DHT22;1336;48.692;9.144;2022-12-18T08:51:34;11.40;91.90
2653;DHT22;1336;48.692;9.144;2022-12-18T08:52:26;10.90;92.10
2653;DHT22;1336;48.692;9.144;2022-12-18T08:53:17;10.50;92.60
2653;DHT22;1336;48.692;9.144;2022-12-18T08:54:11;10.10;93.20
2653;DHT22;1336;48.692;9.144;2022-12-18T08:55:02;9.80;93.50
2653;DHT22;1336;48.692;9.144;2022-12-18T08:55:55;9.40;94.20
2653;DHT22;1336;48.692;9.144;2022-12-18T08:56:47;9.10;94.80
2653;DHT22;1336;48.692;9.144;2022-12-18T08:57:38;8.60;95.30
2653;DHT22;1336;48.692;9.144;2022-12-18T08:58:30;8.30;96.20
2653;DHT22;1336;48.692;9.144;2022-12-18T08:59:21;8.00;97.10
2653;DHT22;1336;48.692;9.144;2022-12-18T09:00:14;7.90;97.20
2653;DHT22;1336;48.692;9.144;2022-12-18T09:01:06;7.90;97.20
2653;DHT22;1336;48.692;9.144;2022-12-18T09:01:59;8.10;97.20
2653;DHT22;1336;48.692;9.144;2022-12-18T09:02:49;8.60;97.20
2653;DHT22;1336;48.692;9.144;2022-12-18T09:03:41;9.10;97.20
2653;DHT22;1336;48.692;9.144;2022-12-18T09:04:32;9.90;97.20
2653;DHT22;1336;48.692;9.144;2022-12-18T09:05:24;10.70;97.10
2653;DHT22;1336;48.692;9.144;2022-12-18T09:06:17;11.60;95.80
2653;DHT22;1336;48.692;9.144;2022-12-18T09:07:09;12.40;94.60
2653;DHT22;1336;48.692;9.144;2022-12-18T09:07:59;13.20;93.20
2653;DHT22;1336;48.692;9.144;2022-12-18T09:08:51;13.90;92.00
2653;DHT22;1336;48.692;9.144;2022-12-18T09:09:42;14.60;90.80
2653;DHT22;1336;48.692;9.144;2022-12-18T09:10:40;15.20;89.60
2653;DHT22;1336;48.692;9.144;2022-12-18T09:11:32;15.70;88.60
2653;DHT22;1336;48.692;9.144;2022-12-18T09:12:24;16.20;87.60
2653;DHT22;1336;48.692;9.144;2022-12-18T09:13:16;16.60;86.40
2653;DHT22;1336;48.692;9.144;2022-12-18T09:14:09;16.90;85.90
2653;DHT22;1336;48.692;9.144;2022-12-18T09:15:00;17.10;85.00
2653;DHT22;1336;48.692;9.144;2022-12-18T09:15:53;17.50;84.60
2653;DHT22;1336;48.692;9.144;2022-12-18T09:16:44;17.90;84.00
2653;DHT22;1336;48.692;9.144;2022-12-18T09:17:36;18.20;83.20
2653;DHT22;1336;48.692;9.144;2022-12-18T09:18:27;18.40;82.30
2653;DHT22;1336;48.692;9.144;2022-12-18T09:19:18;18.50;81.70
2653;DHT22;1336;48.692;9.144;2022-12-18T09:20:10;18.70;81.40
2653;DHT22;1336;48.692;9.144;2022-12-18T09:21:08;18.70;81.00
2653;DHT22;1336;48.692;9.144;2022-12-18T09:22:01;18.70;80.90
2653;DHT22;1336;48.692;9.144;2022-12-18T09:22:53;18.60;80.70
2653;DHT22;1336;48.692;9.144;2022-12-18T09:23:45;18.50;80.70
2653;DHT22;1336;48.692;9.144;2022-12-18T09:24:40;18.30;80.60
2653;DHT22;1336;48.692;9.144;2022-12-18T09:25:31;18.00;80.80
2653;DHT22;1336;48.692;9.144;2022-12-18T09:26:24;17.80;81.40
2653;DHT22;1336;48.692;9.144;2022-12-18T09:27:15;17.90;81.90
2653;DHT22;1336;48.692;9.144;2022-12-18T09:28:12;18.10;81.80
2653;DHT22;1336;48.692;9.144;2022-12-18T09:29:03;18.50;81.60
2653;DHT22;1336;48.692;9.144;2022-12-18T09:29:55;19.10;81.10
2653;DHT22;1336;48.692;9.144;2022-12-18T09:30:47;19.60;80.10
2653;DHT22;1336;48.692;9.144;2022-12-18T09:31:39;19.90;79.30
2653;DHT22;1336;48.692;9.144;2022-12-18T09:32:30;20.10;78.50
2653;DHT22;1336;48.692;9.144;2022-12-18T09:33:22;20.30;78.10
2653;DHT22;1336;48.692;9.144;2022-12-18T09:34:12;20.70;77.90
2653;DHT22;1336;48.692;9.144;2022-12-18T09:35:05;20.80;77.30
2653;DHT22;1336;48.692;9.144;2022-12-18T09:35:55;21.10;76.80
2653;DHT22;1336;48.692;9.144;2022-12-18T09:36:47;21.20;76.40
2653;DHT22;1336;48.692;9.144;2022-12-18T09:37:39;21.50;76.00
2653;DHT22;1336;48.692;9.144;2022-12-18T09:38:33;21.90;75.90
2653;DHT22;1336;48.692;9.144;2022-12-18T09:39:24;22.10;75.00
2653;DHT22;1336;48.692;9.144;2022-12-18T09:40:18;22.40;74.70
2653;DHT22;1336;48.692;9.144;2022-12-18T09:41:23;22.70;74.20
2653;DHT22;1336;48.692;9.144;2022-12-18T09:42:20;22.90;73.10
2653;DHT22;1336;48.692;9.144;2022-12-18T09:43:16;23.20;73.00
2653;DHT22;1336;48.692;9.144;2022-12-18T09:44:15;23.50;72.30
2653;DHT22;1336;48.692;9.144;2022-12-18T09:45:12;23.70;71.70
2653;DHT22;1336;48.692;9.144;2022-12-18T09:46:07;24.00;71.20
2653;DHT22;1336;48.692;9.144;2022-12-18T09:47:11;24.40;71.20
2653;DHT22;1336;48.692;9.144;2022-12-18T09:48:10;24.80;70.20
2653;DHT22;1336;48.692;9.144;2022-12-18T09:49:11;25.10;69.50
2653;DHT22;1336;48.692;9.144;2022-12-18T09:50:17;25.60;69.30
2653;DHT22;1336;48.692;9.144;2022-12-18T09:51:14;26.10;68.70
2653;DHT22;1336;48.692;9.144;2022-12-18T09:52:11;26.40;67.60
2653;DHT22;1336;48.692;9.144;2022-12-18T09:53:10;26.60;67.10
2653;DHT22;1336;48.692;9.144;2022-12-18T09:54:06;26.80;66.70
2653;DHT22;1336;48.692;9.144;2022-12-18T09:55:01;27.00;66.00
2653;DHT22;1336;48.692;9.144;2022-12-18T09:55:54;27.20;65.60
2653;DHT22;1336;48.692;9.144;2022-12-18T09:56:46;27.40;65.20
2653;DHT22;1336;48.692;9.144;2022-12-18T09:57:45;27.50;65.00
2653;DHT22;1336;48.692;9.144;2022-12-18T09:58:43;27.70;64.80
2653;DHT22;1336;48.692;9.144;2022-12-18T09:59:37;27.70;64.30
2653;DHT22;1336;48.692;9.144;2022-12-18T10:00:30;27.80;63.90
2653;DHT22;1336;48.692;9.144;2022-12-18T10:01:22;27.80;63.60
2653;DHT22;1336;48.692;9.144;2022-12-18T10:02:16;27.90;63.10
2653;DHT22;1336;48.692;9.144;2022-12-18T10:03:10;28.00;62.90
2653;DHT22;1336;48.692;9.144;2022-12-18T10:04:02;28.10;62.80
2653;DHT22;1336;48.692;9.144;2022-12-18T10:05:03;28.00;62.50
2653;DHT22;1336;48.692;9.144;2022-12-18T10:06:01;27.90;62.40
2653;DHT22;1336;48.692;9.144;2022-12-18T10:07:00;28.10;62.70
2653;DHT22;1336;48.692;9.144;2022-12-18T10:08:00;28.20;62.70
2653;DHT22;1336;48.692;9.144;2022-12-18T10:08:56;28.30;62.20
2653;DHT22;1336;48.692;9.144;2022-12-18T10:09:57;28.30;62.00
2653;DHT22;1336;48.692;9.144;2022-12-18T10:10:52;28.30;62.30
2653;DHT22;1336;48.692;9.144;2022-12-18T10:11:51;28.50;62.30
2653;DHT22;1336;48.692;9.144;2022-12-18T10:12:50;28.60;62.10
2653;DHT22;1336;48.692;9.144;2022-12-18T10:13:49;28.80;61.80
2653;DHT22;1336;48.692;9.144;2022-12-18T10:14:48;28.80;61.40
2653;DHT22;1336;48.692;9.144;2022-12-18T10:15:50;28.80;61.40
2653;DHT22;1336;48.692;9.144;2022-12-18T10:16:55;28.80;61.40
2653;DHT22;1336;48.692;9.144;2022-12-18T10:17:53;28.90;61.20
2653;DHT22;1336;48.692;9.144;2022-12-18T10:19:00;29.00;61.30
2653;DHT22;1336;48.692;9.144;2022-12-18T10:19:56;29.10;61.00
2653;DHT22;1336;48.692;9.144;2022-12-18T10:20:50;29.40;61.00
2653;DHT22;1336;48.692;9.144;2022-12-18T10:21:49;29.40;61.00
2653;DHT22;1336;48.692;9.144;2022-12-18T10:22:53;29.60;60.80
2653;DHT22;1336;48.692;9.144;2022-12-18T10:23:57;29.60;60.50
2653;DHT22;1336;48.692;9.144;2022-12-18T10:24:54;29.50;60.10
2653;DHT22;1336;48.692;9.144;2022-12-18T10:25:52;29.50;60.30
2653;DHT22;1336;48.692;9.144;2022-12-18T10:26:44;29.60;60.50
2653;DHT22;1336;48.692;9.144;2022-12-18T10:27:36;29.60;60.40
2653;DHT22;1336;48.692;9.144;2022-12-18T10:28:27;29.80;60.40
2653;DHT22;1336;48.692;9.144;2022-12-18T10:29:21;29.80;59.50
2653;DHT22;1336;48.692;9.144;2022-12-18T10:30:13;30.00;59.90
2653;DHT22;1336;48.692;9.144;2022-12-18T10:31:06;30.10;59.70
2653;DHT22;1336;48.692;9.144;2022-12-18T10:31:56;30.10;59.10
2653;DHT22;1336;48.692;9.144;2022-12-18T10:32:48;30.10;59.10
2653;DHT22;1336;48.692;9.144;2022-12-18T10:33:39;30.10;59.20
2653;DHT22;1336;48.692;9.144;2022-12-18T10:34:31;30.10;59.10
2653;DHT22;1336;48.692;9.144;2022-12-18T10:35:24;30.20;59.00
2653;DHT22;1336;48.692;9.144;2022-12-18T10:36:16;30.20;58.90
2653;DHT22;1336;48.692;9.144;2022-12-18T10:37:13;30.10;59.00
2653;DHT22;1336;48.692;9.144;2022-12-18T10:38:21;30.10;58.90
2653;DHT22;1336;48.692;9.144;2022-12-18T10:39:17;29.90;58.40
2653;DHT22;1336;48.692;9.144;2022-12-18T10:40:12;29.70;58.80
2653;DHT22;1336;48.692;9.144;2022-12-18T10:41:05;29.60;58.80
2653;DHT22;1336;48.692;9.144;2022-12-18T10:42:10;29.40;58.70
2653;DHT22;1336;48.692;9.144;2022-12-18T10:43:04;29.40;59.10
2653;DHT22;1336;48.692;9.144;2022-12-18T10:44:11;29.50;59.50
2653;DHT22;1336;48.692;9.144;2022-12-18T10:45:10;29.40;59.10
2653;DHT22;1336;48.692;9.144;2022-12-18T10:46:12;29.40;59.50
2653;DHT22;1336;48.692;9.144;2022-12-18T10:47:11;29.30;59.40
2653;DHT22;1336;48.692;9.144;2022-12-18T10:48:04;29.50;59.60
2653;DHT22;1336;48.692;9.144;2022-12-18T10:48:56;29.60;59.70
2653;DHT22;1336;48.692;9.144;2022-12-18T10:49:50;29.50;59.20
2653;DHT22;1336;48.692;9.144;2022-12-18T10:50:47;29.40;59.40
2653;DHT22;1336;48.692;9.144;2022-12-18T10:51:39;29.40;59.70
2653;DHT22;1336;48.692;9.144;2022-12-18T10:52:30;29.40;59.80
2653;DHT22;1336;48.692;9.144;2022-12-18T10:53:24;29.30;59.30
2653;DHT22;1336;48.692;9.144;2022-12-18T10:54:19;29.00;59.60
2653;DHT22;1336;48.692;9.144;2022-12-18T10:55:16;28.70;59.70
2653;DHT22;1336;48.692;9.144;2022-12-18T10:56:07;28.70;60.10
2653;DHT22;1336;48.692;9.144;2022-12-18T10:57:14;28.70;60.00
2653;DHT22;1336;48.692;9.144;2022-12-18T10:58:23;28.50;59.70
2653;DHT22;1336;48.692;9.144;2022-12-18T10:59:16;28.30;59.90
2653;DHT22;1336;48.692;9.144;2022-12-18T11:00:29;28.10;60.10
2653;DHT22;1336;48.692;9.144;2022-12-18T11:01:21;28.00;60.20
2653;DHT22;1336;48.692;9.144;2022-12-18T11:02:26;28.00;60.30
2653;DHT22;1336;48.692;9.144;2022-12-18T11:03:31;27.90;60.40
2653;DHT22;1336;48.692;9.144;2022-12-18T11:04:24;27.90;60.80
2653;DHT22;1336;48.692;9.144;2022-12-18T11:05:28;28.00;61.00
2653;DHT22;1336;48.692;9.144;2022-12-18T11:06:22;27.70;60.30
2653;DHT22;1336;48.692;9.144;2022-12-18T11:07:14;27.50;60.70
2653;DHT22;1336;48.692;9.144;2022-12-18T11:08:07;27.30;61.30
2653;DHT22;1336;48.692;9.144;2022-12-18T11:09:21;27.00;61.20
2653;DHT22;1336;48.692;9.144;2022-12-18T11:10:16;26.60;61.70
2653;DHT22;1336;48.692;9.144;2022-12-18T11:11:15;26.60;62.10
2653;DHT22;1336;48.692;9.144;2022-12-18T11:12:16;26.70;62.30
2653;DHT22;1336;48.692;9.144;2022-12-18T11:13:11;27.00;62.10
2653;DHT22;1336;48.692;9.144;2022-12-18T11:14:04;27.30;61.70
2653;DHT22;1336;48.692;9.144;2022-12-18T11:14:57;27.80;61.70
2653;DHT22;1336;48.692;9.144;2022-12-18T11:15:51;28.20;61.40
2653;DHT22;1336;48.692;9.144;2022-12-18T11:16:44;28.70;60.80
2653;DHT22;1336;48.692;9.144;2022-12-18T11:17:36;29.10;60.60
2653;DHT22;1336;48.692;9.144;2022-12-18T11:18:29;29.40;60.10
2653;DHT22;1336;48.692;9.144;2022-12-18T11:19:26;29.70;59.50
2653;DHT22;1336;48.692;9.144;2022-12-18T11:20:29;29.70;58.80
2653;DHT22;1336;48.692;9.144;2022-12-18T11:21:20;29.90;59.10
2653;DHT22;1336;48.692;9.144;2022-12-18T11:22:20;30.20;59.00
2653;DHT22;1336;48.692;9.144;2022-12-18T11:23:12;30.60;59.00
2653;DHT22;1336;48.692;9.144;2022-12-18T11:24:06;30.90;58.60
2653;DHT22;1336;48.692;9.144;2022-12-18T11:25:18;31.10;57.80
2653;DHT22;1336;48.692;9.144;2022-12-18T11:26:10;31.30;57.60
2653;DHT22;1336;48.692;9.144;2022-12-18T11:27:04;31.50;57.70
2653;DHT22;1336;48.692;9.144;2022-12-18T11:27:58;31.90;57.60
2653;DHT22;1336;48.692;9.144;2022-12-18T11:28:51;32.10;57.20
2653;DHT22;1336;48.692;9.144;2022-12-18T11:29:42;32.30;56.90
2653;DHT22;1336;48.692;9.144;2022-12-18T11:30:36;32.50;56.70
2653;DHT22;1336;48.692;9.144;2022-12-18T11:31:27;32.50;56.20
2653;DHT22;1336;48.692;9.144;2022-12-18T11:32:31;32.50;56.30
2653;DHT22;1336;48.692;9.144;2022-12-18T11:33:23;32.50;56.30
2653;DHT22;1336;48.692;9.144;2022-12-18T11:34:19;32.40;56.00
2653;DHT22;1336;48.692;9.144;2022-12-18T11:35:18;32.30;56.00
2653;DHT22;1336;48.692;9.144;2022-12-18T11:36:11;32.00;56.00
2653;DHT22;1336;48.692;9.144;2022-12-18T11:37:03;32.00;56.40
2653;DHT22;1336;48.692;9.144;2022-12-18T11:38:05;31.80;56.30
2653;DHT22;1336;48.692;9.144;2022-12-18T11:38:59;31.60;56.50
2653;DHT22;1336;48.692;9.144;2022-12-18T11:39:56;31.30;56.40
2653;DHT22;1336;48.692;9.144;2022-12-18T11:40:56;31.00;56.50
2653;DHT22;1336;48.692;9.144;2022-12-18T11:41:53;30.70;56.60
2653;DHT22;1336;48.692;9.144;2022-12-18T11:43:07;30.50;56.90
2653;DHT22;1336;48.692;9.144;2022-12-18T11:44:02;30.30;57.10
2653;DHT22;1336;48.692;9.144;2022-12-18T11:44:58;30.20;57.30
2653;DHT22;1336;48.692;9.144;2022-12-18T11:45:53;30.00;57.20
2653;DHT22;1336;48.692;9.144;2022-12-18T11:46:48;29.80;57.50
2653;DHT22;1336;48.692;9.144;2022-12-18T11:47:45;29.20;57.70
2653;DHT22;1336;48.692;9.144;2022-12-18T11:48:44;28.40;58.00
2653;DHT22;1336;48.692;9.144;2022-12-18T11:49:39;27.30;58.80
2653;DHT22;1336;48.692;9.144;2022-12-18T11:50:38;26.20;59.50